createdAt,value
2018-03-31T00:00:54.453Z,4.60
2018-03-31T00:01:54.608Z,6.30
2018-03-31T00:02:54.756Z,4.20
2018-03-31T00:03:54.920Z,4.90
2018-03-31T00:04:55.056Z,4.40
2018-03-31T00:05:55.208Z,4.60
2018-03-31T00:06:55.360Z,5.30
2018-03-31T00:07:55.509Z,5.40
2018-03-31T00:08:55.659Z,4.80
2018-03-31T00:09:55.808Z,4.60
2018-03-31T00:10:55.961Z,5.30
2018-03-31T00:11:56.104Z,5.70
2018-03-31T00:12:56.267Z,5.30
2018-03-31T00:13:56.421Z,4.70
2018-03-31T00:14:56.566Z,5.00
2018-03-31T00:15:56.722Z,4.60
2018-03-31T00:16:56.869Z,5.00
2018-03-31T00:17:57.017Z,4.30
2018-03-31T00:18:57.167Z,4.60
2018-03-31T00:19:57.317Z,5.10
2018-03-31T00:20:57.478Z,4.80
2018-03-31T00:21:57.615Z,5.10
2018-03-31T00:22:57.767Z,4.30
2018-03-31T00:23:57.926Z,4.30
2018-03-31T00:24:58.071Z,4.90
2018-03-31T00:25:58.222Z,4.60
2018-03-31T00:26:58.372Z,5.00
2018-03-31T00:27:58.521Z,4.60
2018-03-31T00:28:58.676Z,4.60
2018-03-31T00:29:58.824Z,4.20
2018-03-31T00:30:58.972Z,4.70
2018-03-31T00:31:59.124Z,4.40
2018-03-31T00:32:59.274Z,4.80
2018-03-31T00:33:59.430Z,4.30
2018-03-31T00:34:59.579Z,5.50
2018-03-31T00:35:59.726Z,4.10
2018-03-31T00:36:59.884Z,5.00
2018-03-31T00:38:00.032Z,4.70
2018-03-31T00:39:00.172Z,4.70
2018-03-31T00:40:00.341Z,5.20
2018-03-31T00:41:00.471Z,5.10
2018-03-31T00:42:00.630Z,4.70
2018-03-31T00:43:00.773Z,4.90
2018-03-31T00:44:00.920Z,4.90
2018-03-31T00:45:01.072Z,4.30
2018-03-31T00:46:01.223Z,4.70
2018-03-31T00:47:01.373Z,4.60
2018-03-31T00:48:01.525Z,4.70
2018-03-31T00:49:01.676Z,5.20
2018-03-31T00:50:01.826Z,4.90
2018-03-31T00:51:01.973Z,5.50
2018-03-31T00:52:02.133Z,4.70
2018-03-31T00:53:02.268Z,4.50
2018-03-31T00:54:02.421Z,4.20
2018-03-31T00:55:02.573Z,5.00
2018-03-31T00:56:02.722Z,5.30
2018-03-31T00:57:02.877Z,4.50
2018-03-31T00:58:03.025Z,5.40
2018-03-31T00:59:03.179Z,4.40
2018-03-31T01:00:03.328Z,5.80
2018-03-31T01:01:03.481Z,4.80
2018-03-31T01:02:03.628Z,4.40
2018-03-31T01:03:03.776Z,4.50
2018-03-31T01:04:03.928Z,5.40
2018-03-31T01:05:04.079Z,4.80
2018-03-31T01:06:04.230Z,4.70
2018-03-31T01:07:04.380Z,4.60
2018-03-31T01:08:04.530Z,5.40
2018-03-31T01:09:04.681Z,4.80
2018-03-31T01:10:04.832Z,4.60
2018-03-31T01:11:04.980Z,4.70
2018-03-31T01:12:05.135Z,5.60
2018-03-31T01:13:05.281Z,5.30
2018-03-31T01:14:05.434Z,4.70
2018-03-31T01:15:05.585Z,4.80
2018-03-31T01:16:05.734Z,4.40
2018-03-31T01:17:05.888Z,5.00
2018-03-31T01:18:06.030Z,4.20
2018-03-31T01:19:06.185Z,5.40
2018-03-31T01:20:06.349Z,4.90
2018-03-31T01:21:06.483Z,4.50
2018-03-31T01:22:06.643Z,4.30
2018-03-31T01:23:06.785Z,5.70
2018-03-31T01:24:06.952Z,4.70
2018-03-31T01:25:07.088Z,5.10
2018-03-31T01:26:07.243Z,4.90
2018-03-31T01:27:07.389Z,5.30
2018-03-31T01:28:07.538Z,5.60
2018-03-31T01:29:07.688Z,4.30
2018-03-31T01:30:07.839Z,4.40
2018-03-31T01:31:07.990Z,4.60
2018-03-31T01:32:08.143Z,4.40
2018-03-31T01:33:08.292Z,4.10
2018-03-31T01:34:08.453Z,4.30
2018-03-31T01:35:08.595Z,4.60
2018-03-31T01:36:08.748Z,4.50
2018-03-31T01:37:08.896Z,5.10
2018-03-31T01:38:09.048Z,4.30
2018-03-31T01:39:09.205Z,4.20
2018-03-31T01:40:09.350Z,4.60
2018-03-31T01:41:09.500Z,5.10
2018-03-31T01:42:09.653Z,4.40
2018-03-31T01:43:09.807Z,4.60
2018-03-31T01:44:09.959Z,5.60
2018-03-31T01:45:10.103Z,4.50
2018-03-31T01:46:10.253Z,4.80
2018-03-31T01:47:10.405Z,4.40
2018-03-31T01:48:10.557Z,5.00
2018-03-31T01:49:10.712Z,5.30
2018-03-31T01:50:10.859Z,4.10
2018-03-31T01:51:11.008Z,5.20
2018-03-31T01:52:11.158Z,4.20
2018-03-31T01:53:11.318Z,5.10
2018-03-31T01:54:11.463Z,4.10
2018-03-31T01:55:11.610Z,4.30
2018-03-31T01:56:11.761Z,4.10
2018-03-31T01:57:11.914Z,4.20
2018-03-31T01:58:12.062Z,4.20
2018-03-31T01:59:12.217Z,4.70
2018-03-31T02:00:12.609Z,4.10
2018-03-31T02:01:12.512Z,4.80
2018-03-31T02:02:12.663Z,4.70
2018-03-31T02:03:12.813Z,6.10
2018-03-31T02:04:12.967Z,4.30
2018-03-31T02:05:13.112Z,5.30
2018-03-31T02:06:13.264Z,6.30
2018-03-31T02:07:13.410Z,5.10
2018-03-31T02:08:13.573Z,4.60
2018-03-31T02:09:13.714Z,4.50
2018-03-31T02:10:13.865Z,4.60
2018-03-31T02:11:14.013Z,4.70
2018-03-31T02:12:14.167Z,4.80
2018-03-31T02:13:14.382Z,4.60
2018-03-31T02:14:14.471Z,4.60
2018-03-31T02:15:14.626Z,4.90
2018-03-31T02:16:14.768Z,4.60
2018-03-31T02:17:14.927Z,4.70
2018-03-31T02:18:15.076Z,5.00
2018-03-31T02:19:15.239Z,5.30
2018-03-31T02:20:15.383Z,4.40
2018-03-31T02:21:15.530Z,4.60
2018-03-31T02:22:15.686Z,4.80
2018-03-31T02:23:15.834Z,4.80
2018-03-31T02:24:15.978Z,5.70
2018-03-31T02:25:16.135Z,5.70
2018-03-31T02:26:16.285Z,4.60
2018-03-31T02:27:16.434Z,4.50
2018-03-31T02:28:16.583Z,4.30
2018-03-31T02:29:16.735Z,5.00
2018-03-31T02:30:16.891Z,4.80
2018-03-31T02:31:17.036Z,4.90
2018-03-31T02:32:17.190Z,4.80
2018-03-31T02:33:17.341Z,5.60
2018-03-31T02:34:17.492Z,5.30
2018-03-31T02:35:17.647Z,5.50
2018-03-31T02:36:17.796Z,4.90
2018-03-31T02:37:18.198Z,5.00
2018-03-31T02:38:18.092Z,5.10
2018-03-31T02:39:18.245Z,4.50
2018-03-31T02:40:18.400Z,4.70
2018-03-31T02:41:18.562Z,5.20
2018-03-31T02:42:18.699Z,4.60
2018-03-31T02:43:18.850Z,4.70
2018-03-31T02:44:18.999Z,5.00
2018-03-31T02:45:19.150Z,4.60
2018-03-31T02:46:19.298Z,4.80
2018-03-31T02:47:19.452Z,4.60
2018-03-31T02:48:19.601Z,4.70
2018-03-31T02:49:19.751Z,4.70
2018-03-31T02:50:19.905Z,5.00
2018-03-31T02:51:20.058Z,4.40
2018-03-31T02:52:20.211Z,4.60
2018-03-31T02:53:20.357Z,5.50
2018-03-31T02:54:20.508Z,4.90
2018-03-31T02:55:20.666Z,4.90
2018-03-31T02:56:20.822Z,5.00
2018-03-31T02:57:20.971Z,4.70
2018-03-31T02:58:21.129Z,4.70
2018-03-31T02:59:21.269Z,7.70
2018-03-31T03:00:21.420Z,5.20
2018-03-31T03:01:21.577Z,4.90
2018-03-31T03:02:21.736Z,5.20
2018-03-31T03:03:21.875Z,5.90
2018-03-31T03:04:22.023Z,5.50
2018-03-31T03:05:22.174Z,5.30
2018-03-31T03:06:22.340Z,5.20
2018-03-31T03:07:22.480Z,6.50
2018-03-31T03:08:22.627Z,5.20
2018-03-31T03:09:22.775Z,6.30
2018-03-31T03:10:22.923Z,5.50
2018-03-31T03:11:23.073Z,6.00
2018-03-31T03:12:23.227Z,5.20
2018-03-31T03:13:23.375Z,5.40
2018-03-31T03:14:23.525Z,5.60
2018-03-31T03:15:23.680Z,6.90
2018-03-31T03:16:23.826Z,5.50
2018-03-31T03:17:23.979Z,4.90
2018-03-31T03:18:24.129Z,5.10
2018-03-31T03:19:24.278Z,4.90
2018-03-31T03:20:24.433Z,5.00
2018-03-31T03:21:24.585Z,6.20
2018-03-31T03:22:24.738Z,6.50
2018-03-31T03:23:24.894Z,4.90
2018-03-31T03:24:25.033Z,5.50
2018-03-31T03:25:25.180Z,4.80
2018-03-31T03:26:25.335Z,4.90
2018-03-31T03:27:25.495Z,5.00
2018-03-31T03:28:25.652Z,5.20
2018-03-31T03:29:25.800Z,5.50
2018-03-31T03:30:25.952Z,5.30
2018-03-31T03:31:26.105Z,5.10
2018-03-31T03:32:26.254Z,5.40
2018-03-31T03:33:26.396Z,5.10
2018-03-31T03:34:26.551Z,6.10
2018-03-31T03:35:26.704Z,4.90
2018-03-31T03:36:26.852Z,5.60
2018-03-31T03:37:27.002Z,4.90
2018-03-31T03:38:27.155Z,5.50
2018-03-31T03:39:27.305Z,4.90
2018-03-31T03:40:27.459Z,4.50
2018-03-31T03:41:27.607Z,4.80
2018-03-31T03:42:27.755Z,4.50
2018-03-31T03:43:27.904Z,5.80
2018-03-31T03:44:28.056Z,5.10
2018-03-31T03:45:28.208Z,4.40
2018-03-31T03:46:28.355Z,5.20
2018-03-31T03:47:28.521Z,4.90
2018-03-31T03:48:28.661Z,4.70
2018-03-31T03:49:28.817Z,5.00
2018-03-31T03:50:28.967Z,5.00
2018-03-31T03:51:29.114Z,4.90
2018-03-31T03:52:29.265Z,5.20
2018-03-31T03:53:29.412Z,5.30
2018-03-31T03:54:29.564Z,5.60
2018-03-31T03:55:29.716Z,4.90
2018-03-31T03:56:29.864Z,4.80
2018-03-31T03:57:30.019Z,5.00
2018-03-31T03:58:30.164Z,4.90
2018-03-31T03:59:30.317Z,5.40
2018-03-31T04:00:30.476Z,5.00
2018-03-31T04:01:30.617Z,4.90
2018-03-31T04:02:30.770Z,5.00
2018-03-31T04:03:30.921Z,4.90
2018-03-31T04:04:31.068Z,5.50
2018-03-31T04:05:31.217Z,5.50
2018-03-31T04:06:31.370Z,5.30
2018-03-31T04:07:31.521Z,4.90
2018-03-31T04:08:31.675Z,5.70
2018-03-31T04:09:31.824Z,4.70
2018-03-31T04:10:31.978Z,4.50
2018-03-31T04:11:32.124Z,4.60
2018-03-31T04:13:32.422Z,4.60
2018-03-31T04:14:32.577Z,4.40
2018-03-31T04:15:32.726Z,5.00
2018-03-31T04:16:32.876Z,5.10
2018-03-31T04:17:33.027Z,5.40
2018-03-31T04:18:33.177Z,5.10
2018-03-31T04:19:33.336Z,5.80
2018-03-31T04:20:33.482Z,5.20
2018-03-31T04:21:33.629Z,5.80
2018-03-31T04:22:33.777Z,7.10
2018-03-31T04:23:33.930Z,5.20
2018-03-31T04:24:34.082Z,4.70
2018-03-31T04:25:34.235Z,4.70
2018-03-31T04:26:34.378Z,5.10
2018-03-31T04:27:34.532Z,4.90
2018-03-31T04:28:34.690Z,5.10
2018-03-31T04:29:34.832Z,5.20
2018-03-31T04:30:34.992Z,6.60
2018-03-31T04:31:35.130Z,4.80
2018-03-31T04:32:35.281Z,5.10
2018-03-31T04:33:35.436Z,4.90
2018-03-31T04:34:35.584Z,4.80
2018-03-31T04:35:35.741Z,5.00
2018-03-31T04:36:35.884Z,5.10
2018-03-31T04:37:36.035Z,6.50
2018-03-31T04:38:36.184Z,5.70
2018-03-31T04:39:36.338Z,6.60
2018-03-31T04:40:36.490Z,5.10
2018-03-31T04:41:36.635Z,5.40
2018-03-31T04:42:36.788Z,5.10
2018-03-31T04:43:36.938Z,5.00
2018-03-31T04:44:37.087Z,5.30
2018-03-31T04:45:37.241Z,5.20
2018-03-31T04:46:37.389Z,5.70
2018-03-31T04:47:37.539Z,5.60
2018-03-31T04:48:37.690Z,5.00
2018-03-31T04:49:38.080Z,5.20
2018-03-31T04:50:37.989Z,5.00
2018-03-31T04:51:38.138Z,5.00
2018-03-31T04:52:38.293Z,5.40
2018-03-31T04:53:38.441Z,5.20
2018-03-31T04:54:38.593Z,4.60
2018-03-31T04:55:38.748Z,5.10
2018-03-31T04:56:38.892Z,4.90
2018-03-31T04:57:39.045Z,4.80
2018-03-31T04:58:39.191Z,4.60
2018-03-31T04:59:39.351Z,4.50
2018-03-31T05:00:39.493Z,4.80
2018-03-31T05:01:39.642Z,4.50
2018-03-31T05:02:39.790Z,5.10
2018-03-31T05:03:39.942Z,4.90
2018-03-31T05:04:40.095Z,4.90
2018-03-31T05:05:40.242Z,4.90
2018-03-31T05:06:40.402Z,4.80
2018-03-31T05:07:40.544Z,5.20
2018-03-31T05:08:40.698Z,5.10
2018-03-31T05:09:40.848Z,4.60
2018-03-31T05:10:41.011Z,4.70
2018-03-31T05:11:41.140Z,4.80
2018-03-31T05:12:41.314Z,5.00
2018-03-31T05:13:41.467Z,4.90
2018-03-31T05:14:41.624Z,5.00
2018-03-31T05:15:41.765Z,4.60
2018-03-31T05:16:41.917Z,4.60
2018-03-31T05:17:42.065Z,4.80
2018-03-31T05:18:42.216Z,4.70
2018-03-31T05:19:42.364Z,5.30
2018-03-31T05:20:42.514Z,4.70
2018-03-31T05:21:42.668Z,4.40
2018-03-31T05:22:42.816Z,4.30
2018-03-31T05:23:42.968Z,4.90
2018-03-31T05:24:43.120Z,5.00
2018-03-31T05:25:43.277Z,4.60
2018-03-31T05:26:43.422Z,5.20
2018-03-31T05:27:43.566Z,5.60
2018-03-31T05:28:43.721Z,5.60
2018-03-31T05:29:43.878Z,5.30
2018-03-31T05:30:44.033Z,5.00
2018-03-31T05:31:44.188Z,6.00
2018-03-31T05:32:44.577Z,7.20
2018-03-31T05:33:44.494Z,6.20
2018-03-31T05:34:44.646Z,6.00
2018-03-31T05:35:44.792Z,6.10
2018-03-31T05:36:44.947Z,5.90
2018-03-31T05:37:45.098Z,6.20
2018-03-31T05:38:45.248Z,5.90
2018-03-31T05:39:45.394Z,6.00
2018-03-31T05:40:45.545Z,6.60
2018-03-31T05:41:45.697Z,6.10
2018-03-31T05:42:45.847Z,5.80
2018-03-31T05:43:45.998Z,5.70
2018-03-31T05:44:46.159Z,5.70
2018-03-31T05:45:46.307Z,5.90
2018-03-31T05:46:46.450Z,5.40
2018-03-31T05:47:46.601Z,5.40
2018-03-31T05:48:46.756Z,5.60
2018-03-31T05:49:46.904Z,5.70
2018-03-31T05:50:47.054Z,6.00
2018-03-31T05:51:47.203Z,5.50
2018-03-31T05:52:47.352Z,6.20
2018-03-31T05:53:47.504Z,6.80
2018-03-31T05:54:47.671Z,5.80
2018-03-31T05:55:47.807Z,5.70
2018-03-31T05:56:47.959Z,6.20
2018-03-31T05:57:48.110Z,5.70
2018-03-31T05:58:48.258Z,6.30
2018-03-31T05:59:48.414Z,6.30
2018-03-31T06:00:48.564Z,6.00
2018-03-31T06:01:48.711Z,6.20
2018-03-31T06:02:48.861Z,6.70
2018-03-31T06:03:49.018Z,5.00
2018-03-31T06:04:49.167Z,5.40
2018-03-31T06:05:49.315Z,5.80
2018-03-31T06:06:49.465Z,5.50
2018-03-31T06:07:49.653Z,7.20
2018-03-31T06:08:49.767Z,6.10
2018-03-31T06:09:49.924Z,5.60
2018-03-31T06:10:50.064Z,5.20
2018-03-31T06:11:50.222Z,5.90
2018-03-31T06:12:50.460Z,5.90
2018-03-31T06:13:50.521Z,6.30
2018-03-31T06:14:50.668Z,5.90
2018-03-31T06:15:50.818Z,6.40
2018-03-31T06:16:50.973Z,6.90
2018-03-31T06:17:51.121Z,7.20
2018-03-31T06:18:51.283Z,7.10
2018-03-31T06:19:51.431Z,7.30
2018-03-31T06:20:51.578Z,7.00
2018-03-31T06:21:51.729Z,8.20
2018-03-31T06:22:51.880Z,8.10
2018-03-31T06:23:52.034Z,8.30
2018-03-31T06:24:52.185Z,8.00
2018-03-31T06:25:52.336Z,7.80
2018-03-31T06:26:52.492Z,8.20
2018-03-31T06:27:52.642Z,8.80
2018-03-31T06:28:52.792Z,8.90
2018-03-31T06:29:52.943Z,7.30
2018-03-31T06:30:53.095Z,8.00
2018-03-31T06:31:53.248Z,8.10
2018-03-31T06:32:53.402Z,6.40
2018-03-31T06:33:53.548Z,7.30
2018-03-31T06:34:53.702Z,7.10
2018-03-31T06:35:53.870Z,6.90
2018-03-31T06:36:54.008Z,7.50
2018-03-31T06:37:54.175Z,7.50
2018-03-31T06:38:54.319Z,8.10
2018-03-31T06:39:54.465Z,8.90
2018-03-31T06:40:54.618Z,8.70
2018-03-31T06:41:54.770Z,10.00
2018-03-31T06:42:54.932Z,19.20
2018-03-31T06:43:55.107Z,19.30
2018-03-31T06:44:55.232Z,13.60
2018-03-31T06:45:55.383Z,43.70
2018-03-31T06:46:55.536Z,29.40
2018-03-31T06:47:55.689Z,25.80
2018-03-31T06:48:55.840Z,17.80
2018-03-31T06:49:55.993Z,11.30
2018-03-31T06:50:56.155Z,8.80
2018-03-31T06:51:56.294Z,7.30
2018-03-31T06:52:56.449Z,8.50
2018-03-31T06:53:56.598Z,6.90
2018-03-31T06:54:56.758Z,6.90
2018-03-31T06:55:56.909Z,6.50
2018-03-31T06:56:57.059Z,7.20
2018-03-31T06:57:57.208Z,7.30
2018-03-31T06:58:57.369Z,7.40
2018-03-31T06:59:57.516Z,7.50
2018-03-31T07:00:57.671Z,8.40
2018-03-31T07:01:57.819Z,8.70
2018-03-31T07:02:57.973Z,8.50
2018-03-31T07:03:58.122Z,8.40
2018-03-31T07:04:58.272Z,8.00
2018-03-31T07:05:58.426Z,7.80
2018-03-31T07:06:58.582Z,8.00
2018-03-31T07:07:58.740Z,8.40
2018-03-31T07:08:58.883Z,7.80
2018-03-31T07:09:59.034Z,8.00
2018-03-31T07:10:59.188Z,8.40
2018-03-31T07:11:59.337Z,8.10
2018-03-31T07:12:59.490Z,8.30
2018-03-31T07:13:59.645Z,8.10
2018-03-31T07:14:59.787Z,8.10
2018-03-31T07:15:59.942Z,8.10
2018-03-31T07:17:00.094Z,8.70
2018-03-31T07:18:00.248Z,7.80
2018-03-31T07:19:00.394Z,8.40
2018-03-31T07:20:00.546Z,8.80
2018-03-31T07:21:00.701Z,9.10
2018-03-31T07:22:00.847Z,8.70
2018-03-31T07:23:01.004Z,8.70
2018-03-31T07:24:01.158Z,8.00
2018-03-31T07:25:01.315Z,8.40
2018-03-31T07:26:01.463Z,7.60
2018-03-31T07:27:01.613Z,8.00
2018-03-31T07:28:01.767Z,8.40
2018-03-31T07:29:01.924Z,8.60
2018-03-31T07:30:02.068Z,22.90
2018-03-31T07:31:02.227Z,12.40
2018-03-31T07:32:02.376Z,12.10
2018-03-31T07:33:02.526Z,8.20
2018-03-31T07:34:02.678Z,11.90
2018-03-31T07:35:02.825Z,15.60
2018-03-31T07:36:02.977Z,8.60
2018-03-31T07:37:03.127Z,9.40
2018-03-31T07:38:03.276Z,9.90
2018-03-31T07:39:03.423Z,9.90
2018-03-31T07:40:03.578Z,10.40
2018-03-31T07:41:03.735Z,9.90
2018-03-31T07:42:03.885Z,9.60
2018-03-31T07:43:04.049Z,9.00
2018-03-31T07:44:04.199Z,9.40
2018-03-31T07:45:04.348Z,10.10
2018-03-31T07:46:04.538Z,10.50
2018-03-31T07:47:04.643Z,10.70
2018-03-31T07:48:04.809Z,10.60
2018-03-31T07:49:04.963Z,17.60
2018-03-31T07:50:05.110Z,12.80
2018-03-31T07:51:05.265Z,10.20
2018-03-31T07:52:05.486Z,9.60
2018-03-31T07:53:05.573Z,10.00
2018-03-31T07:54:05.726Z,10.70
2018-03-31T07:55:05.880Z,9.40
2018-03-31T07:56:06.028Z,11.10
2018-03-31T07:57:06.176Z,10.40
2018-03-31T07:58:06.339Z,10.00
2018-03-31T07:59:06.485Z,11.00
2018-03-31T08:00:06.644Z,11.60
2018-03-31T08:01:06.792Z,10.60
2018-03-31T08:02:06.944Z,10.50
2018-03-31T08:03:07.102Z,10.40
2018-03-31T08:04:07.255Z,10.10
2018-03-31T08:05:07.404Z,9.70
2018-03-31T08:06:07.556Z,10.40
2018-03-31T08:07:07.706Z,10.10
2018-03-31T08:08:07.860Z,20.30
2018-03-31T08:09:08.013Z,13.80
2018-03-31T08:10:08.173Z,10.80
2018-03-31T08:11:08.310Z,10.40
2018-03-31T08:12:08.461Z,10.30
2018-03-31T08:13:08.619Z,9.90
2018-03-31T08:14:08.757Z,8.90
2018-03-31T08:15:08.910Z,9.10
2018-03-31T08:16:09.060Z,8.50
2018-03-31T08:17:09.215Z,8.50
2018-03-31T08:18:09.370Z,10.50
2018-03-31T08:19:09.524Z,9.60
2018-03-31T08:20:09.670Z,8.90
2018-03-31T08:21:09.827Z,8.50
2018-03-31T08:22:09.966Z,7.80
2018-03-31T08:23:10.131Z,7.70
2018-03-31T08:24:10.277Z,7.80
2018-03-31T08:25:10.437Z,7.80
2018-03-31T08:26:10.578Z,7.80
2018-03-31T08:27:10.727Z,7.70
2018-03-31T08:28:10.887Z,7.50
2018-03-31T08:29:11.038Z,7.70
2018-03-31T08:30:11.190Z,7.80
2018-03-31T08:31:11.399Z,7.30
2018-03-31T08:32:11.503Z,7.40
2018-03-31T08:33:11.641Z,7.70
2018-03-31T08:34:11.789Z,7.50
2018-03-31T08:35:12.189Z,7.70
2018-03-31T08:36:12.096Z,7.50
2018-03-31T08:37:12.252Z,7.80
2018-03-31T08:39:12.544Z,7.70
2018-03-31T08:40:12.695Z,7.90
2018-03-31T08:41:12.843Z,7.20
2018-03-31T08:42:12.994Z,7.60
2018-03-31T08:43:13.148Z,7.70
2018-03-31T08:44:13.307Z,8.00
2018-03-31T08:45:13.456Z,7.70
2018-03-31T08:46:13.614Z,7.90
2018-03-31T08:47:13.877Z,7.50
2018-03-31T08:48:13.918Z,8.00
2018-03-31T08:49:14.070Z,8.20
2018-03-31T08:50:14.220Z,7.70
2018-03-31T08:51:14.372Z,7.70
2018-03-31T08:52:14.533Z,7.90
2018-03-31T08:53:14.680Z,8.50
2018-03-31T08:54:14.844Z,7.90
2018-03-31T08:55:14.980Z,8.70
2018-03-31T08:56:15.134Z,8.30
2018-03-31T08:57:15.296Z,8.50
2018-03-31T08:58:15.441Z,8.40
2018-03-31T08:59:15.595Z,8.40
2018-03-31T09:00:15.744Z,8.90
2018-03-31T09:01:15.898Z,8.80
2018-03-31T09:02:16.054Z,8.50
2018-03-31T09:03:16.215Z,8.90
2018-03-31T09:04:16.344Z,8.80
2018-03-31T09:05:16.507Z,9.20
2018-03-31T09:06:16.643Z,9.30
2018-03-31T09:07:16.793Z,9.30
2018-03-31T09:08:16.975Z,10.00
2018-03-31T09:09:17.117Z,9.40
2018-03-31T09:10:17.248Z,9.40
2018-03-31T09:11:17.399Z,9.70
2018-03-31T09:12:17.535Z,10.20
2018-03-31T09:13:17.683Z,10.30
2018-03-31T09:14:17.854Z,10.10
2018-03-31T09:15:18.010Z,10.30
2018-03-31T09:16:18.167Z,10.30
2018-03-31T09:17:18.308Z,10.60
2018-03-31T09:18:18.470Z,10.30
2018-03-31T09:19:18.611Z,10.60
2018-03-31T09:20:18.770Z,11.10
2018-03-31T09:21:18.934Z,12.00
2018-03-31T09:22:19.092Z,11.50
2018-03-31T09:23:19.241Z,12.50
2018-03-31T09:24:19.395Z,12.00
2018-03-31T09:25:19.560Z,11.70
2018-03-31T09:26:19.701Z,11.80
2018-03-31T09:27:19.860Z,12.30
2018-03-31T09:28:20.010Z,12.70
2018-03-31T09:29:20.164Z,13.60
2018-03-31T09:30:20.335Z,13.60
2018-03-31T09:31:20.478Z,13.10
2018-03-31T09:32:20.630Z,14.20
2018-03-31T09:33:20.789Z,14.80
2018-03-31T09:34:20.937Z,14.60
2018-03-31T09:35:21.092Z,15.00
2018-03-31T09:36:21.235Z,16.10
2018-03-31T09:37:21.393Z,15.60
2018-03-31T09:38:21.543Z,16.50
2018-03-31T09:39:21.698Z,15.50
2018-03-31T09:40:21.851Z,16.30
2018-03-31T09:41:22.001Z,16.00
2018-03-31T09:42:22.154Z,17.30
2018-03-31T09:43:22.548Z,16.40
2018-03-31T09:44:22.456Z,17.10
2018-03-31T09:45:22.613Z,16.50
2018-03-31T09:46:22.770Z,17.40
2018-03-31T09:47:22.915Z,17.40
2018-03-31T09:48:23.071Z,17.90
2018-03-31T09:49:23.221Z,17.60
2018-03-31T09:50:23.381Z,18.70
2018-03-31T09:51:23.527Z,18.00
2018-03-31T09:52:23.679Z,18.90
2018-03-31T09:53:23.828Z,18.30
2018-03-31T09:54:23.984Z,17.80
2018-03-31T09:55:24.142Z,18.20
2018-03-31T09:56:24.285Z,19.70
2018-03-31T09:57:24.440Z,19.50
2018-03-31T09:58:24.592Z,18.00
2018-03-31T09:59:24.748Z,18.90
2018-03-31T10:00:24.906Z,20.10
2018-03-31T10:01:25.058Z,19.30
2018-03-31T10:02:25.210Z,19.40
2018-03-31T10:03:25.362Z,20.20
2018-03-31T10:04:25.532Z,21.00
2018-03-31T10:05:25.665Z,20.70
2018-03-31T10:06:25.827Z,20.00
2018-03-31T10:07:25.968Z,20.30
2018-03-31T10:08:26.116Z,21.30
2018-03-31T10:09:26.270Z,22.10
2018-03-31T10:10:26.414Z,20.90
2018-03-31T10:11:26.564Z,21.70
2018-03-31T10:12:26.724Z,22.00
2018-03-31T10:13:26.868Z,22.30
2018-03-31T10:14:27.019Z,21.60
2018-03-31T10:15:27.187Z,21.70
2018-03-31T10:16:27.338Z,22.10
2018-03-31T10:17:27.490Z,22.00
2018-03-31T10:18:27.641Z,21.70
2018-03-31T10:19:27.803Z,21.70
2018-03-31T10:20:28.190Z,21.70
2018-03-31T10:21:28.106Z,21.10
2018-03-31T10:22:28.242Z,22.20
2018-03-31T10:24:28.543Z,20.90
2018-03-31T10:25:28.693Z,21.60
2018-03-31T10:26:28.851Z,21.70
2018-03-31T10:27:28.997Z,22.10
2018-03-31T10:28:29.154Z,21.80
2018-03-31T10:29:29.313Z,23.20
2018-03-31T10:30:29.467Z,21.20
2018-03-31T10:31:29.623Z,21.50
2018-03-31T10:32:29.788Z,20.70
2018-03-31T10:33:29.937Z,19.40
2018-03-31T10:34:30.084Z,19.80
2018-03-31T10:35:30.229Z,20.70
2018-03-31T10:36:30.447Z,20.20
2018-03-31T10:37:30.543Z,20.80
2018-03-31T10:38:30.691Z,20.00
2018-03-31T10:39:30.848Z,19.60
2018-03-31T10:40:31.004Z,19.20
2018-03-31T10:41:31.152Z,19.10
2018-03-31T10:42:31.296Z,19.20
2018-03-31T10:43:31.458Z,19.30
2018-03-31T10:44:31.610Z,18.90
2018-03-31T10:45:31.767Z,18.50
2018-03-31T10:46:31.918Z,19.00
2018-03-31T10:47:32.072Z,18.80
2018-03-31T10:48:32.222Z,18.70
2018-03-31T10:49:32.369Z,20.30
2018-03-31T10:50:32.522Z,20.30
2018-03-31T10:51:32.676Z,20.70
2018-03-31T10:52:32.834Z,20.50
2018-03-31T10:53:32.986Z,20.10
2018-03-31T10:54:33.138Z,20.30
2018-03-31T10:55:33.291Z,19.90
2018-03-31T10:56:33.452Z,19.60
2018-03-31T10:57:33.596Z,19.30
2018-03-31T10:58:33.754Z,18.80
2018-03-31T10:59:33.900Z,19.80
2018-03-31T11:00:34.056Z,18.60
2018-03-31T11:01:34.237Z,18.60
2018-03-31T11:02:34.346Z,18.40
2018-03-31T11:04:34.668Z,18.80
2018-03-31T11:05:34.838Z,19.60
2018-03-31T11:06:34.968Z,17.90
2018-03-31T11:07:35.132Z,18.10
2018-03-31T11:08:35.268Z,18.30
2018-03-31T11:09:35.427Z,16.80
2018-03-31T11:10:35.576Z,17.10
2018-03-31T11:11:35.732Z,16.70
2018-03-31T11:12:35.887Z,16.20
2018-03-31T11:13:36.048Z,16.20
2018-03-31T11:14:36.194Z,17.00
2018-03-31T11:15:36.346Z,16.60
2018-03-31T11:16:36.499Z,15.90
2018-03-31T11:17:36.654Z,15.70
2018-03-31T11:18:36.811Z,16.20
2018-03-31T11:19:36.972Z,16.60
2018-03-31T11:20:37.116Z,16.10
2018-03-31T11:21:37.270Z,15.10
2018-03-31T11:22:37.433Z,16.60
2018-03-31T11:23:37.654Z,15.00
2018-03-31T11:24:37.802Z,14.90
2018-03-31T11:25:37.956Z,15.50
2018-03-31T11:26:38.109Z,16.80
2018-03-31T11:27:38.277Z,16.00
2018-03-31T11:28:38.448Z,16.20
2018-03-31T11:29:38.576Z,16.60
2018-03-31T11:30:38.770Z,16.70
2018-03-31T11:31:38.911Z,17.10
2018-03-31T11:32:39.057Z,18.10
2018-03-31T11:33:39.217Z,16.20
2018-03-31T11:34:39.370Z,17.30
2018-03-31T11:35:39.520Z,17.40
2018-03-31T11:36:39.675Z,16.80
2018-03-31T11:37:39.830Z,17.40
2018-03-31T11:38:39.993Z,17.60
2018-03-31T11:39:40.139Z,17.70
2018-03-31T11:40:40.292Z,15.90
2018-03-31T11:41:40.446Z,16.20
2018-03-31T11:42:40.603Z,15.90
2018-03-31T11:43:40.755Z,15.80
2018-03-31T11:44:40.917Z,17.50
2018-03-31T11:45:41.061Z,17.50
2018-03-31T11:46:41.221Z,18.00
2018-03-31T11:47:41.375Z,16.50
2018-03-31T11:48:41.529Z,16.40
2018-03-31T11:49:41.686Z,16.80
2018-03-31T11:50:41.836Z,15.40
2018-03-31T11:51:41.996Z,15.70
2018-03-31T11:52:42.146Z,16.30
2018-03-31T11:53:42.568Z,16.50
2018-03-31T11:54:42.455Z,16.60
2018-03-31T11:55:42.625Z,17.10
2018-03-31T11:56:42.749Z,16.20
2018-03-31T11:57:42.896Z,16.20
2018-03-31T11:58:43.059Z,14.90
2018-03-31T11:59:43.206Z,15.70
2018-03-31T12:00:43.371Z,15.80
2018-03-31T12:01:43.521Z,15.90
2018-03-31T12:02:43.670Z,16.70
2018-03-31T12:03:43.824Z,16.80
2018-03-31T12:04:43.986Z,16.40
2018-03-31T12:05:44.134Z,16.10
2018-03-31T12:06:44.287Z,16.40
2018-03-31T12:07:44.447Z,16.20
2018-03-31T12:08:44.600Z,16.70
2018-03-31T12:09:44.765Z,17.20
2018-03-31T12:10:44.912Z,16.00
2018-03-31T12:11:45.065Z,16.30
2018-03-31T12:12:45.231Z,15.90
2018-03-31T12:13:45.383Z,16.00
2018-03-31T12:14:45.543Z,15.50
2018-03-31T12:15:45.730Z,15.90
2018-03-31T12:16:45.874Z,16.20
2018-03-31T12:17:46.031Z,15.50
2018-03-31T12:19:46.334Z,15.80
2018-03-31T12:20:46.490Z,15.90
2018-03-31T12:21:46.650Z,14.60
2018-03-31T12:22:46.800Z,15.60
2018-03-31T12:23:46.956Z,14.90
2018-03-31T12:24:47.111Z,14.80
2018-03-31T12:25:47.264Z,14.00
2018-03-31T12:26:47.425Z,14.50
2018-03-31T12:27:47.576Z,14.50
2018-03-31T12:28:47.730Z,14.30
2018-03-31T12:29:47.890Z,14.50
2018-03-31T12:30:48.040Z,14.90
2018-03-31T12:31:48.197Z,15.20
2018-03-31T12:32:48.355Z,14.90
2018-03-31T12:33:48.508Z,15.10
2018-03-31T12:34:48.675Z,15.00
2018-03-31T12:35:48.817Z,14.30
2018-03-31T12:36:48.997Z,14.20
2018-03-31T12:37:49.142Z,14.80
2018-03-31T12:38:49.298Z,14.60
2018-03-31T12:39:49.458Z,14.40
2018-03-31T12:40:49.607Z,14.40
2018-03-31T12:41:49.768Z,14.60
2018-03-31T12:42:49.917Z,14.30
2018-03-31T12:43:50.071Z,14.00
2018-03-31T12:44:50.241Z,14.70
2018-03-31T12:45:50.385Z,13.30
2018-03-31T12:46:50.539Z,14.10
2018-03-31T12:47:50.700Z,13.30
2018-03-31T12:48:50.859Z,12.80
2018-03-31T12:49:51.006Z,12.90
2018-03-31T12:50:51.168Z,13.30
2018-03-31T12:51:51.318Z,13.10
2018-03-31T12:52:51.470Z,12.40
2018-03-31T12:53:51.633Z,13.70
2018-03-31T12:54:51.788Z,12.50
2018-03-31T12:55:51.928Z,12.70
2018-03-31T12:56:52.098Z,12.80
2018-03-31T12:57:52.244Z,12.80
2018-03-31T12:58:52.400Z,12.30
2018-03-31T12:59:52.553Z,13.10
2018-03-31T13:00:52.714Z,13.10
2018-03-31T13:01:52.863Z,13.40
2018-03-31T13:02:53.021Z,12.80
2018-03-31T13:03:53.179Z,12.40
2018-03-31T13:04:53.340Z,13.10
2018-03-31T13:05:53.486Z,13.90
2018-03-31T13:06:53.648Z,13.60
2018-03-31T13:07:53.815Z,13.60
2018-03-31T13:08:53.962Z,13.50
2018-03-31T13:09:54.116Z,13.60
2018-03-31T13:10:54.272Z,13.90
2018-03-31T13:11:54.429Z,13.90
2018-03-31T13:12:54.589Z,14.50
2018-03-31T13:13:54.745Z,13.00
2018-03-31T13:14:54.896Z,13.60
2018-03-31T13:15:55.055Z,12.80
2018-03-31T13:16:55.197Z,13.20